createdAt,value
2023-05-12T00:00:48.423Z,13.70
2023-05-12T00:03:16.436Z,13.62
2023-05-12T00:05:44.593Z,13.64
2023-05-12T00:08:12.504Z,13.68
2023-05-12T00:10:40.535Z,13.67
2023-05-12T00:13:09.449Z,13.55
2023-05-12T00:15:37.642Z,13.54
2023-05-12T00:18:05.697Z,13.51
2023-05-12T00:20:33.681Z,13.55
2023-05-12T00:23:01.722Z,13.61
2023-05-12T00:25:29.653Z,13.66
2023-05-12T00:27:57.525Z,13.57
2023-05-12T00:30:25.772Z,13.60
2023-05-12T00:32:53.689Z,13.62
2023-05-12T00:35:21.713Z,13.63
2023-05-12T00:37:49.642Z,13.58
2023-05-12T00:40:17.836Z,13.59
2023-05-12T00:42:45.883Z,13.63
2023-05-12T00:45:13.766Z,13.58
2023-05-12T00:47:42.157Z,13.65
2023-05-12T00:50:10.328Z,13.49
2023-05-12T00:52:38.259Z,13.55
2023-05-12T00:55:06.774Z,13.47
2023-05-12T00:57:34.615Z,13.50
2023-05-12T01:00:02.677Z,13.47
2023-05-12T01:02:31.577Z,13.46
2023-05-12T01:04:59.739Z,13.61
2023-05-12T01:07:31.209Z,13.61
2023-05-12T01:10:00.372Z,13.70
2023-05-12T01:12:32.434Z,13.70
2023-05-12T01:15:01.697Z,13.63
2023-05-12T01:17:35.721Z,13.62
2023-05-12T01:20:08.145Z,13.55
2023-05-12T01:22:37.369Z,13.57
2023-05-12T01:25:08.891Z,13.41
2023-05-12T01:27:39.904Z,13.33
2023-05-12T01:30:10.096Z,13.35
2023-05-12T01:32:40.281Z,13.37
2023-05-12T01:35:09.139Z,13.27
2023-05-12T01:37:38.830Z,13.26
2023-05-12T01:40:07.828Z,13.23
2023-05-12T01:42:35.783Z,13.34
2023-05-12T01:45:03.865Z,13.29
2023-05-12T01:47:32.302Z,13.23
2023-05-12T01:50:07.660Z,13.32
2023-05-12T01:52:35.628Z,13.41
2023-05-12T01:55:04.737Z,13.30
2023-05-12T01:57:39.010Z,13.30
2023-05-12T02:00:08.143Z,13.34
2023-05-12T02:02:43.363Z,13.34
2023-05-12T02:05:13.455Z,13.37
2023-05-12T02:07:43.332Z,13.29
2023-05-12T02:10:12.210Z,13.34
2023-05-12T02:12:40.179Z,13.30
2023-05-12T02:15:08.485Z,13.20
2023-05-12T02:17:38.928Z,13.28
2023-05-12T02:20:08.955Z,13.29
2023-05-12T02:22:36.912Z,13.30
2023-05-12T02:25:05.304Z,13.26
2023-05-12T02:27:33.690Z,13.28
2023-05-12T02:30:01.782Z,13.28
2023-05-12T02:32:30.397Z,13.31
2023-05-12T02:35:01.529Z,13.16
2023-05-12T02:37:30.070Z,13.19
2023-05-12T02:39:57.871Z,13.20
2023-05-12T02:42:29.018Z,13.19
2023-05-12T02:44:57.181Z,13.24
2023-05-12T02:47:25.116Z,13.15
2023-05-12T02:49:53.035Z,13.22
2023-05-12T02:52:22.325Z,13.24
2023-05-12T02:54:50.220Z,13.30
2023-05-12T02:57:18.193Z,13.37
2023-05-12T02:59:46.023Z,13.37
2023-05-12T03:02:14.101Z,13.42
2023-05-12T03:04:42.031Z,13.47
2023-05-12T03:07:09.927Z,13.43
2023-05-12T03:09:37.868Z,13.48
2023-05-12T03:12:06.028Z,13.47
2023-05-12T03:14:33.889Z,13.40
2023-05-12T03:17:01.898Z,13.23
2023-05-12T03:19:30.182Z,13.12
2023-05-12T03:21:58.110Z,13.12
2023-05-12T03:24:26.037Z,13.12
2023-05-12T03:26:55.191Z,13.11
2023-05-12T03:29:23.285Z,13.18
2023-05-12T03:31:51.208Z,13.15
2023-05-12T03:34:19.645Z,13.07
2023-05-12T03:36:47.647Z,13.03
2023-05-12T03:39:15.966Z,13.06
2023-05-12T03:41:43.856Z,13.14
2023-05-12T03:44:12.468Z,13.04
2023-05-12T03:46:40.491Z,13.17
2023-05-12T03:49:08.499Z,13.08
2023-05-12T03:51:36.386Z,13.24
2023-05-12T03:54:04.491Z,13.13
2023-05-12T03:56:32.474Z,13.09
2023-05-12T03:59:00.510Z,13.02
2023-05-12T04:01:28.472Z,13.07
2023-05-12T04:03:56.563Z,13.10
2023-05-12T04:06:24.576Z,13.05
2023-05-12T04:08:52.483Z,12.99
2023-05-12T04:11:20.342Z,13.00
2023-05-12T04:13:48.301Z,13.04
2023-05-12T04:16:16.325Z,13.08
2023-05-12T04:18:44.320Z,13.12
2023-05-12T04:21:12.320Z,13.11
2023-05-12T04:23:40.930Z,13.04
2023-05-12T04:26:08.738Z,13.10
2023-05-12T04:28:37.303Z,13.19
2023-05-12T04:31:05.484Z,13.10
2023-05-12T04:33:35.359Z,13.12
2023-05-12T04:36:04.232Z,13.10
2023-05-12T04:38:32.360Z,13.48
2023-05-12T04:41:01.197Z,13.75
2023-05-12T04:46:01.660Z,13.90
2023-05-12T04:48:29.648Z,14.06
2023-05-12T04:51:01.955Z,14.18
2023-05-12T04:53:34.747Z,14.23
2023-05-12T04:56:03.647Z,14.31
2023-05-12T04:58:36.515Z,14.31
2023-05-12T05:01:04.882Z,14.32
2023-05-12T05:03:34.174Z,14.28
2023-05-12T05:06:02.309Z,14.35
2023-05-12T05:08:30.730Z,14.34
2023-05-12T05:10:58.656Z,14.38
2023-05-12T05:13:28.473Z,14.42
2023-05-12T05:15:56.843Z,14.40
2023-05-12T05:18:26.262Z,14.33
2023-05-12T05:20:58.947Z,14.27
2023-05-12T05:23:27.638Z,14.36
2023-05-12T05:25:56.390Z,14.47
2023-05-12T05:28:24.628Z,14.54
2023-05-12T05:30:52.961Z,14.61
2023-05-12T05:33:21.440Z,14.57
2023-05-12T05:35:50.357Z,14.51
2023-05-12T05:38:18.266Z,14.53
2023-05-12T05:40:53.636Z,14.29
2023-05-12T05:43:23.251Z,14.27
2023-05-12T05:45:52.054Z,14.38
2023-05-12T05:48:21.963Z,14.37
2023-05-12T05:50:52.417Z,14.43
2023-05-12T05:53:22.658Z,14.44
2023-05-12T05:55:50.919Z,14.47
2023-05-12T05:58:18.902Z,14.58
2023-05-12T06:00:49.938Z,14.60
2023-05-12T06:03:17.824Z,14.63
2023-05-12T06:05:45.948Z,14.55
2023-05-12T06:08:14.065Z,14.45
2023-05-12T06:10:42.000Z,14.51
2023-05-12T06:13:10.049Z,14.63
2023-05-12T06:15:37.956Z,14.67
2023-05-12T06:18:05.994Z,14.56
2023-05-12T06:20:33.933Z,14.63
2023-05-12T06:23:04.998Z,14.60
2023-05-12T06:25:33.563Z,14.72
2023-05-12T06:28:02.080Z,14.72
2023-05-12T06:30:30.090Z,14.71
2023-05-12T06:32:57.968Z,14.75
2023-05-12T06:35:25.893Z,14.72
2023-05-12T06:37:53.694Z,14.68
2023-05-12T06:40:21.749Z,14.76
2023-05-12T06:42:50.356Z,14.89
2023-05-12T06:45:21.710Z,14.89
2023-05-12T06:47:50.550Z,14.86
2023-05-12T06:50:19.591Z,14.94
2023-05-12T06:52:52.660Z,14.94
2023-05-12T06:55:21.223Z,14.84
2023-05-12T06:57:51.842Z,14.85
2023-05-12T07:00:20.095Z,14.82
2023-05-12T07:02:48.192Z,14.90
2023-05-12T07:05:16.215Z,14.77
2023-05-12T07:07:45.700Z,14.72
2023-05-12T07:10:13.659Z,14.78
2023-05-12T07:12:41.569Z,14.92
2023-05-12T07:15:10.185Z,15.16
2023-05-12T07:17:38.141Z,15.18
2023-05-12T07:20:07.436Z,15.26
2023-05-12T07:22:36.565Z,15.42
2023-05-12T07:25:07.781Z,15.51
2023-05-12T07:27:35.731Z,15.44
2023-05-12T07:30:04.210Z,15.48
2023-05-12T07:32:32.680Z,15.55
2023-05-12T07:35:00.612Z,15.61
2023-05-12T07:37:28.503Z,15.61
2023-05-12T07:39:56.428Z,15.77
2023-05-12T07:42:24.476Z,15.90
2023-05-12T07:44:52.455Z,15.90
2023-05-12T07:47:20.434Z,15.76
2023-05-12T07:49:48.279Z,16.00
2023-05-12T07:52:16.108Z,15.94
2023-05-12T07:54:43.944Z,15.93
2023-05-12T07:57:11.850Z,16.20
2023-05-12T07:59:40.438Z,16.12
2023-05-12T08:02:08.341Z,16.10
2023-05-12T08:04:36.320Z,15.81
2023-05-12T08:07:04.430Z,15.89
2023-05-12T08:09:32.315Z,15.96
2023-05-12T08:12:01.634Z,16.03
2023-05-12T08:14:29.524Z,15.97
2023-05-12T08:16:57.431Z,15.95
2023-05-12T08:19:25.272Z,16.01
2023-05-12T08:21:53.943Z,16.01
2023-05-12T08:24:22.110Z,15.88
2023-05-12T08:26:50.146Z,16.03
2023-05-12T08:29:18.004Z,16.06
2023-05-12T08:31:45.838Z,16.08
2023-05-12T08:34:13.921Z,16.07
2023-05-12T08:36:42.096Z,15.92
2023-05-12T08:39:12.948Z,16.08
2023-05-12T08:42:03.523Z,15.82
2023-05-12T08:44:32.309Z,15.84
2023-05-12T08:47:01.857Z,15.95
2023-05-12T08:49:32.652Z,15.72
2023-05-12T08:52:02.637Z,15.78
2023-05-12T08:54:30.659Z,15.69
2023-05-12T08:59:30.320Z,15.64
2023-05-12T09:01:59.250Z,15.81
2023-05-12T09:04:27.451Z,16.02
2023-05-12T09:06:56.042Z,16.27
2023-05-12T09:09:25.746Z,16.42
2023-05-12T09:11:57.738Z,16.37
2023-05-12T09:14:26.552Z,16.51
2023-05-12T09:17:00.198Z,16.60
2023-05-12T09:19:28.428Z,16.48
2023-05-12T09:21:56.453Z,16.48
2023-05-12T09:24:44.584Z,16.56
2023-05-12T09:27:12.734Z,16.38
2023-05-12T09:29:59.179Z,16.19
2023-05-12T09:32:35.927Z,16.50
2023-05-12T09:35:11.241Z,16.82
2023-05-12T09:37:42.772Z,16.79
2023-05-12T09:40:11.857Z,16.84
2023-05-12T09:42:42.844Z,17.13
2023-05-12T09:45:11.085Z,17.23
2023-05-12T09:47:40.175Z,16.92
2023-05-12T09:50:09.011Z,16.72
2023-05-12T09:52:38.946Z,16.79
2023-05-12T09:55:11.599Z,16.76
2023-05-12T09:57:41.621Z,16.82
2023-05-12T10:00:31.320Z,16.90
2023-05-12T10:03:15.109Z,16.98
2023-05-12T10:06:12.460Z,17.23
2023-05-12T10:08:43.816Z,17.19
2023-05-12T10:11:12.257Z,17.10
2023-05-12T10:13:40.782Z,16.80
2023-05-12T10:16:09.635Z,17.18
2023-05-12T10:18:38.500Z,17.11
2023-05-12T10:21:08.434Z,17.55
2023-05-12T10:23:38.049Z,17.45
2023-05-12T10:26:06.818Z,17.55
2023-05-12T10:28:34.706Z,17.72
2023-05-12T10:31:05.815Z,17.75
2023-05-12T10:33:33.930Z,17.30
2023-05-12T10:36:01.815Z,17.20
2023-05-12T10:38:37.478Z,17.60
2023-05-12T10:41:06.736Z,17.55
2023-05-12T10:43:43.420Z,17.55
2023-05-12T10:46:21.035Z,17.55
2023-05-12T10:48:57.625Z,17.56
2023-05-12T10:51:28.660Z,17.49
2023-05-12T10:53:59.280Z,17.26
2023-05-12T10:56:42.531Z,17.29
2023-05-12T10:59:24.474Z,17.24
2023-05-12T11:02:00.322Z,17.34
2023-05-12T11:04:50.409Z,17.44
2023-05-12T11:07:24.648Z,17.47
2023-05-12T11:09:57.456Z,17.50
2023-05-12T11:12:27.539Z,17.46
2023-05-12T11:14:55.719Z,17.54
2023-05-12T11:17:23.661Z,17.29
2023-05-12T11:19:52.774Z,17.22
2023-05-12T11:22:23.159Z,17.47
2023-05-12T11:24:52.982Z,17.73
2023-05-12T11:27:23.356Z,17.88
2023-05-12T11:30:03.063Z,18.02
2023-05-12T11:32:33.548Z,18.43
2023-05-12T11:35:21.918Z,18.27
2023-05-12T11:37:50.105Z,18.10
2023-05-12T11:40:20.684Z,17.84
2023-05-12T11:42:52.494Z,17.90
2023-05-12T11:45:26.446Z,18.23
2023-05-12T11:48:07.409Z,18.05
2023-05-12T11:50:39.172Z,18.37
2023-05-12T11:53:15.179Z,18.80
2023-05-12T11:55:56.601Z,18.82
2023-05-12T11:58:30.814Z,18.77
2023-05-12T12:01:12.347Z,18.83
2023-05-12T12:03:50.321Z,18.43
2023-05-12T12:06:20.275Z,18.73
2023-05-12T12:08:53.478Z,18.90
2023-05-12T12:11:22.582Z,18.91
2023-05-12T12:13:57.940Z,18.72
2023-05-12T12:16:30.329Z,19.04
2023-05-12T12:18:58.526Z,19.38
2023-05-12T12:21:26.643Z,19.41
2023-05-12T12:23:54.637Z,19.70
2023-05-12T12:26:23.456Z,19.57
2023-05-12T12:28:51.377Z,19.65
2023-05-12T12:31:19.640Z,19.79
2023-05-12T12:33:47.475Z,19.66
2023-05-12T12:36:15.357Z,19.70
2023-05-12T12:38:43.216Z,19.78
2023-05-12T12:41:11.112Z,20.08
2023-05-12T12:43:39.245Z,19.69
2023-05-12T12:46:07.372Z,19.43
2023-05-12T12:48:35.278Z,19.55
2023-05-12T12:51:03.400Z,19.28
2023-05-12T12:53:31.305Z,19.44
2023-05-12T12:55:59.215Z,19.90
2023-05-12T12:58:28.123Z,19.75
2023-05-12T13:00:56.898Z,20.01
2023-05-12T13:03:25.085Z,19.97
2023-05-12T13:05:52.981Z,19.48
2023-05-12T13:08:21.407Z,19.41
2023-05-12T13:10:49.267Z,19.54
2023-05-12T13:13:17.312Z,20.18
2023-05-12T13:15:45.274Z,20.01
2023-05-12T13:18:13.277Z,20.25
2023-05-12T13:20:41.381Z,20.05
2023-05-12T13:23:10.150Z,19.95
2023-05-12T13:25:38.251Z,20.18
2023-05-12T13:28:06.122Z,20.45
2023-05-12T13:30:34.978Z,20.39
2023-05-12T13:33:05.665Z,19.41
2023-05-12T13:35:34.070Z,19.15
2023-05-12T13:38:02.194Z,19.23
2023-05-12T13:40:30.486Z,19.06
2023-05-12T13:42:58.330Z,18.98
2023-05-12T13:45:26.636Z,19.19
2023-05-12T13:47:54.647Z,19.49
2023-05-12T13:50:23.029Z,19.90
2023-05-12T13:52:50.897Z,19.87
2023-05-12T13:55:21.587Z,20.01
2023-05-12T13:57:49.999Z,20.00
2023-05-12T14:00:18.396Z,20.27
2023-05-12T14:02:46.552Z,20.47
2023-05-12T14:05:15.021Z,20.50
2023-05-12T14:07:43.210Z,19.90
2023-05-12T14:10:11.510Z,20.24
2023-05-12T14:12:41.376Z,20.38
2023-05-12T14:15:24.119Z,20.44
2023-05-12T14:17:57.495Z,20.54
2023-05-12T14:20:25.486Z,20.48
2023-05-12T14:22:53.332Z,20.45
2023-05-12T14:25:21.369Z,20.71
2023-05-12T14:27:49.427Z,20.65
2023-05-12T14:30:18.101Z,20.39
2023-05-12T14:32:46.890Z,20.32
2023-05-12T14:35:15.682Z,20.55
2023-05-12T14:37:44.036Z,20.17
2023-05-12T14:40:13.481Z,20.19
2023-05-12T14:42:42.433Z,20.30
2023-05-12T14:45:11.075Z,19.96
2023-05-12T14:47:39.009Z,20.13
2023-05-12T14:50:07.524Z,20.24
2023-05-12T14:52:38.712Z,20.27
2023-05-12T14:55:11.881Z,19.88
2023-05-12T14:57:44.470Z,19.63
2023-05-12T15:00:14.254Z,19.84
2023-05-12T15:02:44.228Z,19.61
2023-05-12T15:05:15.479Z,19.77
2023-05-12T15:07:43.559Z,19.74
2023-05-12T15:10:12.105Z,19.74
2023-05-12T15:12:39.940Z,19.89
2023-05-12T15:15:14.762Z,19.79
2023-05-12T15:17:43.784Z,19.83
2023-05-12T15:20:12.154Z,19.93
2023-05-12T15:22:40.037Z,20.02
2023-05-12T15:25:08.820Z,19.82
2023-05-12T15:27:36.764Z,19.71
2023-05-12T15:30:05.099Z,19.58
2023-05-12T15:32:33.143Z,19.44
2023-05-12T15:35:01.031Z,19.40
2023-05-12T15:37:28.896Z,19.28
2023-05-12T15:39:56.898Z,19.32
2023-05-12T15:42:29.961Z,19.39
2023-05-12T15:45:00.610Z,19.09
2023-05-12T15:47:28.768Z,18.92
2023-05-12T15:49:56.757Z,18.89
2023-05-12T15:52:25.024Z,19.00
2023-05-12T15:54:53.065Z,18.81
2023-05-12T15:57:21.119Z,18.82
2023-05-12T15:59:50.104Z,18.99
2023-05-12T16:02:18.192Z,18.78
2023-05-12T16:04:46.062Z,18.93
2023-05-12T16:07:13.986Z,18.89
2023-05-12T16:09:41.982Z,19.02
2023-05-12T16:12:11.555Z,18.87
2023-05-12T16:14:39.454Z,18.89
2023-05-12T16:17:07.307Z,18.81
2023-05-12T16:19:35.258Z,19.01
2023-05-12T16:22:03.231Z,18.95
2023-05-12T16:24:31.193Z,18.88
2023-05-12T16:26:59.582Z,18.91
2023-05-12T16:29:31.120Z,18.92
2023-05-12T16:31:59.107Z,18.88
2023-05-12T16:34:27.601Z,18.71
2023-05-12T16:36:55.435Z,18.61
2023-05-12T16:39:23.270Z,18.65
2023-05-12T16:41:51.146Z,18.56
2023-05-12T16:44:19.084Z,18.63
2023-05-12T16:46:47.161Z,18.52
2023-05-12T16:49:15.233Z,18.66
2023-05-12T16:51:43.462Z,18.73
2023-05-12T16:54:11.441Z,18.57
2023-05-12T16:56:39.288Z,18.61
2023-05-12T16:59:07.280Z,18.53
2023-05-12T17:01:36.306Z,18.72
2023-05-12T17:04:04.625Z,18.69
2023-05-12T17:06:32.721Z,18.60
2023-05-12T17:09:01.757Z,18.60
2023-05-12T17:11:29.723Z,18.75
2023-05-12T17:13:57.648Z,18.35
2023-05-12T17:16:25.527Z,18.21
2023-05-12T17:21:24.485Z,18.36
2023-05-12T17:23:54.070Z,18.48
2023-05-12T17:26:22.610Z,18.35
2023-05-12T19:47:30.321Z,14.72
2023-05-12T19:50:09.612Z,14.87
2023-05-12T19:55:50.801Z,14.85
2023-05-12T19:58:21.110Z,14.91
2023-05-12T20:00:51.142Z,14.99
2023-05-12T20:03:19.341Z,14.86
2023-05-12T20:05:49.558Z,14.98
2023-05-12T20:08:19.184Z,15.00
2023-05-12T20:10:49.755Z,14.97
2023-05-12T20:13:22.916Z,14.95
2023-05-12T20:15:52.186Z,14.95
2023-05-12T20:18:23.426Z,15.04
2023-05-12T20:20:57.133Z,15.03
2023-05-12T20:23:26.318Z,15.08
2023-05-12T20:25:54.517Z,15.25
2023-05-12T20:28:24.363Z,15.34
2023-05-12T20:30:53.456Z,15.21
2023-05-12T20:33:22.942Z,14.97
2023-05-12T20:35:51.092Z,15.14
2023-05-12T20:38:19.412Z,14.91
2023-05-12T20:40:48.010Z,14.99
2023-05-12T20:43:16.274Z,15.01
2023-05-12T20:45:46.043Z,15.08
2023-05-12T20:48:17.416Z,15.04
2023-05-12T20:50:46.710Z,14.98
2023-05-12T20:53:15.430Z,14.97
2023-05-12T20:55:44.232Z,14.95
2023-05-12T20:58:13.527Z,14.88
2023-05-12T21:00:41.713Z,14.90
2023-05-12T21:03:24.771Z,14.90
2023-05-12T21:05:57.207Z,14.94
2023-05-12T21:08:27.210Z,14.85
2023-05-12T21:10:55.487Z,14.76
2023-05-12T21:13:24.736Z,14.64
2023-05-12T21:15:52.960Z,14.73
2023-05-12T21:18:21.401Z,14.77
2023-05-12T21:20:49.573Z,14.64
2023-05-12T21:23:17.722Z,14.54
2023-05-12T21:25:46.925Z,14.53
2023-05-12T21:28:15.719Z,14.36
2023-05-12T21:30:43.970Z,14.42
2023-05-12T21:33:13.687Z,14.51
2023-05-12T21:35:42.394Z,14.55
2023-05-12T21:38:10.730Z,14.50
2023-05-12T21:40:39.110Z,14.56
2023-05-12T21:43:07.162Z,14.58
2023-05-12T21:45:35.248Z,14.49
2023-05-12T21:48:03.771Z,14.43
2023-05-12T21:50:32.070Z,14.47
2023-05-12T21:53:01.134Z,14.40
2023-05-12T21:55:29.458Z,14.24
2023-05-12T21:57:58.807Z,14.44
2023-05-12T22:00:29.105Z,14.24
2023-05-12T22:02:57.232Z,14.19
2023-05-12T22:05:25.660Z,14.25
2023-05-12T22:07:54.515Z,14.24
2023-05-12T22:10:23.128Z,14.12
2023-05-12T22:12:53.609Z,14.09
2023-05-12T22:15:22.133Z,14.09
2023-05-12T22:17:50.419Z,14.06
2023-05-12T22:20:19.772Z,13.93
2023-05-12T22:22:48.782Z,14.18
2023-05-12T22:25:17.308Z,14.19
2023-05-12T22:27:46.291Z,14.16
2023-05-12T22:30:14.843Z,14.27
2023-05-12T22:32:42.971Z,14.40
2023-05-12T22:35:12.946Z,14.52
2023-05-12T22:37:41.029Z,14.48
2023-05-12T22:40:10.132Z,14.46
2023-05-12T22:42:39.821Z,14.51
2023-05-12T22:45:08.478Z,14.55
2023-05-12T22:47:37.896Z,14.54
2023-05-12T22:50:07.070Z,14.44
2023-05-12T22:52:35.137Z,14.43
2023-05-12T22:55:03.211Z,14.48
2023-05-12T22:57:31.621Z,14.59
2023-05-12T22:59:59.579Z,14.52
2023-05-12T23:02:28.371Z,14.56
2023-05-12T23:04:56.544Z,14.54
2023-05-12T23:07:25.123Z,14.54
2023-05-12T23:09:53.825Z,14.46
2023-05-12T23:12:22.112Z,14.41
2023-05-12T23:14:51.479Z,14.59
2023-05-12T23:17:21.338Z,14.53
2023-05-12T23:19:49.554Z,14.47
2023-05-12T23:22:17.865Z,14.51
2023-05-12T23:24:46.383Z,14.62
2023-05-12T23:27:15.632Z,14.60
2023-05-12T23:29:43.733Z,14.46
2023-05-12T23:32:12.036Z,14.35
2023-05-12T23:34:43.144Z,14.41
2023-05-12T23:37:11.292Z,14.36
2023-05-12T23:39:39.983Z,14.32
2023-05-12T23:42:08.188Z,14.43
2023-05-12T23:44:39.290Z,14.37
2023-05-12T23:47:07.953Z,14.22
2023-05-12T23:52:17.979Z,14.23
2023-05-12T23:54:48.281Z,14.09
2023-05-12T23:57:21.109Z,14.00
2023-05-12T23:59:49.685Z,14.24
